Denver International Airport, CO

12:00 AM MST on December 06, 2016 (GMT -0700)
Reunion | | Change Station
Active Advisory: Winter Weather Advisory Active Notice: Local Storm Report

Elev 5256 ft 39.88 °N, 104.78 °W | Updated 46 seconds ago

Clear
Clear
20.8 °F
Feels Like 13 °F
N
6.0
Wind Variable Wind from North
Gusts 6.0 mph

Today
High -- | Low -- °F
--% Chance of Precip.
Yesterday
High -- | Low -- °F
Precip. -- in
Pressure 29.92 in
Visibility 10.0 miles
Clouds Clear
Windchill 13 °F
Dew Point 0 °F
Humidity 40%
Rainfall 0.00 in
Snow Depth Not available.
7:06 AM 4:33 PM
Waxing Crescent, 39% visible
METAR KDEN 060653Z 36009KT 10SM CLR M08/M22 A2991 RMK AO2 SLP130 T10831217 401221083
Pressure 29.92 in
Visibility 10.0 miles
Clouds Clear
Windchill 13 °F
Dew Point 0 °F
Humidity 40%
Rainfall 0.00 in
Snow Depth Not available.
7:06 AM 4:33 PM
Waxing Crescent, 39% visible
METAR KDEN 060653Z 36009KT 10SM CLR M08/M22 A2991 RMK AO2 SLP130 T10831217 401221083

10-Day Weather Forecast

Almanac

Astronomy

Dec. 06, 2016 Rise Set
Actual Time
Civil Twilight
Nautical Twilight
Astronomical Twilight
Moon
Length of Visible Light
Length of Day
Tomorrow will be .
, % of the Moon is Illuminated

Today's Extremes

State Highs State Lows

Community

WunderPhotos

Upload Photos

1,955,932 photos uploaded!

WunderBlog® & News

Nearby

Air Quality

  Air Quality AQ Index Pollutant
Not available.

Snow Depth

Station Depth Elevation

Earthquake Activity

City Distance Mag. Time & Date
Minimum magnitude displayed is 2.5.

Coastal Water Temperatures

Place Temperature

Stations

Nearby Weather Stations

Station Location Temp. Windchill Dew Point Humidity Wind Precip. Elev Updated Type
                   

Watches & Warnings

Winter Weather Advisory
Issued: 10:35 PM MST Dec. 5, 2016 – National Weather Service

... Winter Weather Advisory remains in effect from 5 PM Tuesday to
noon MST Wednesday...

* timing... light snow will start Tuesday around rush hour and
increase in intensity by Tuesday evening and continue through
Wednesday afternoon.

* Snow accumulations... snowfall amounts of 2 to 5 inches will be
possible with higher amounts west of I-25

* wind/visibility... winds will be light through the period...
however snowfall intensity will increase Tuesday night and
create for some reduced visibility.

* Impacts... main impacts will be hazardous driving conditions
with increasing snow intensity Tuesday evening towards the end
of rush hour. Caution is advised for drivers.

Precautionary/preparedness actions...

A Winter Weather Advisory for snow means that periods of snow
will cause primarily travel difficulties. Be prepared for snow
covered roads and limited visibilities... and use caution while
driving.